sensor_id;sensor_type;location;lat;lon;timestamp;temperature;humidity
8664;DHT22;4369;47.842;13.096;2023-02-23T00:01:13;8.20;99.90
8664;DHT22;4369;47.842;13.096;2023-02-23T00:03:41;8.20;99.90
8664;DHT22;4369;47.842;13.096;2023-02-23T00:06:09;8.20;99.90
8664;DHT22;4369;47.842;13.096;2023-02-23T00:08:37;8.20;99.90
8664;DHT22;4369;47.842;13.096;2023-02-23T00:11:05;8.20;99.90
8664;DHT22;4369;47.842;13.096;2023-02-23T00:13:34;8.10;99.90
8664;DHT22;4369;47.842;13.096;2023-02-23T00:16:06;8.20;99.90
8664;DHT22;4369;47.842;13.096;2023-02-23T00:18:34;8.10;99.90
8664;DHT22;4369;47.842;13.096;2023-02-23T00:21:11;8.10;99.90
8664;DHT22;4369;47.842;13.096;2023-02-23T00:23:46;8.20;99.90
8664;DHT22;4369;47.842;13.096;2023-02-23T00:26:13;8.10;99.90
8664;DHT22;4369;47.842;13.096;2023-02-23T00:28:42;8.10;99.90
8664;DHT22;4369;47.842;13.096;2023-02-23T00:31:09;8.10;99.90
8664;DHT22;4369;47.842;13.096;2023-02-23T00:33:37;8.10;99.90
8664;DHT22;4369;47.842;13.096;2023-02-23T00:36:06;8.10;99.90
8664;DHT22;4369;47.842;13.096;2023-02-23T00:38:34;8.10;99.90
8664;DHT22;4369;47.842;13.096;2023-02-23T00:41:05;8.10;99.90
8664;DHT22;4369;47.842;13.096;2023-02-23T00:43:34;8.10;99.90
8664;DHT22;4369;47.842;13.096;2023-02-23T00:46:04;8.10;99.90
8664;DHT22;4369;47.842;13.096;2023-02-23T00:48:33;8.00;99.90
8664;DHT22;4369;47.842;13.096;2023-02-23T00:51:02;8.00;99.90
8664;DHT22;4369;47.842;13.096;2023-02-23T00:53:30;8.00;99.90
8664;DHT22;4369;47.842;13.096;2023-02-23T00:55:57;8.00;99.90
8664;DHT22;4369;47.842;13.096;2023-02-23T00:58:25;8.00;99.90
8664;DHT22;4369;47.842;13.096;2023-02-23T01:00:52;8.00;99.90
8664;DHT22;4369;47.842;13.096;2023-02-23T01:03:20;8.00;99.90
8664;DHT22;4369;47.842;13.096;2023-02-23T01:05:47;8.00;99.90
8664;DHT22;4369;47.842;13.096;2023-02-23T01:08:16;8.00;99.90
8664;DHT22;4369;47.842;13.096;2023-02-23T01:10:44;8.00;99.90
8664;DHT22;4369;47.842;13.096;2023-02-23T01:13:17;7.90;99.90
8664;DHT22;4369;47.842;13.096;2023-02-23T01:15:44;7.90;99.90
8664;DHT22;4369;47.842;13.096;2023-02-23T01:18:12;7.90;99.90
8664;DHT22;4369;47.842;13.096;2023-02-23T01:20:40;7.90;99.90
8664;DHT22;4369;47.842;13.096;2023-02-23T01:23:08;7.80;99.90
8664;DHT22;4369;47.842;13.096;2023-02-23T01:25:38;7.80;99.90
8664;DHT22;4369;47.842;13.096;2023-02-23T01:28:05;7.80;99.90
8664;DHT22;4369;47.842;13.096;2023-02-23T01:30:33;7.70;99.90
8664;DHT22;4369;47.842;13.096;2023-02-23T01:33:00;7.70;99.90
8664;DHT22;4369;47.842;13.096;2023-02-23T01:35:28;7.70;99.90
8664;DHT22;4369;47.842;13.096;2023-02-23T01:37:56;7.70;99.90
8664;DHT22;4369;47.842;13.096;2023-02-23T01:40:24;7.70;99.90
8664;DHT22;4369;47.842;13.096;2023-02-23T01:42:55;7.60;99.90
8664;DHT22;4369;47.842;13.096;2023-02-23T01:45:29;7.60;99.90
8664;DHT22;4369;47.842;13.096;2023-02-23T01:47:58;7.60;99.90
8664;DHT22;4369;47.842;13.096;2023-02-23T01:50:29;7.60;99.90
8664;DHT22;4369;47.842;13.096;2023-02-23T01:52:59;7.50;99.90
8664;DHT22;4369;47.842;13.096;2023-02-23T01:55:26;7.40;99.90
8664;DHT22;4369;47.842;13.096;2023-02-23T01:58:00;7.40;99.90
8664;DHT22;4369;47.842;13.096;2023-02-23T02:00:30;7.40;99.90
8664;DHT22;4369;47.842;13.096;2023-02-23T02:03:05;7.30;99.90
8664;DHT22;4369;47.842;13.096;2023-02-23T02:05:35;7.30;99.90
8664;DHT22;4369;47.842;13.096;2023-02-23T02:08:07;7.20;99.90
8664;DHT22;4369;47.842;13.096;2023-02-23T02:10:36;7.10;99.90
8664;DHT22;4369;47.842;13.096;2023-02-23T02:13:12;7.10;99.90
8664;DHT22;4369;47.842;13.096;2023-02-23T02:15:56;7.00;99.90
8664;DHT22;4369;47.842;13.096;2023-02-23T02:18:33;7.00;99.90
8664;DHT22;4369;47.842;13.096;2023-02-23T02:21:44;7.00;99.90
8664;DHT22;4369;47.842;13.096;2023-02-23T02:24:56;6.90;99.90
8664;DHT22;4369;47.842;13.096;2023-02-23T02:27:40;6.80;99.90
8664;DHT22;4369;47.842;13.096;2023-02-23T02:30:29;6.70;99.90
8664;DHT22;4369;47.842;13.096;2023-02-23T02:33:36;6.70;99.90
8664;DHT22;4369;47.842;13.096;2023-02-23T02:39:26;6.70;99.90
8664;DHT22;4369;47.842;13.096;2023-02-23T02:42:08;6.80;99.90
8664;DHT22;4369;47.842;13.096;2023-02-23T02:44:43;6.80;99.90
8664;DHT22;4369;47.842;13.096;2023-02-23T02:47:18;6.90;99.90
8664;DHT22;4369;47.842;13.096;2023-02-23T02:49:51;7.00;99.90
8664;DHT22;4369;47.842;13.096;2023-02-23T02:52:28;7.00;99.90
8664;DHT22;4369;47.842;13.096;2023-02-23T02:55:04;7.10;99.90
8664;DHT22;4369;47.842;13.096;2023-02-23T02:57:34;7.20;99.90
8664;DHT22;4369;47.842;13.096;2023-02-23T03:00:02;7.30;99.90
8664;DHT22;4369;47.842;13.096;2023-02-23T03:02:47;7.30;99.90
8664;DHT22;4369;47.842;13.096;2023-02-23T03:05:37;7.40;99.90
8664;DHT22;4369;47.842;13.096;2023-02-23T03:08:29;7.50;99.90
8664;DHT22;4369;47.842;13.096;2023-02-23T03:11:18;7.60;99.90
8664;DHT22;4369;47.842;13.096;2023-02-23T03:14:13;7.60;99.90
8664;DHT22;4369;47.842;13.096;2023-02-23T03:17:05;7.60;99.90
8664;DHT22;4369;47.842;13.096;2023-02-23T03:19:55;7.60;99.90
8664;DHT22;4369;47.842;13.096;2023-02-23T03:22:49;7.50;99.90
8664;DHT22;4369;47.842;13.096;2023-02-23T03:25:44;7.50;99.90
8664;DHT22;4369;47.842;13.096;2023-02-23T03:28:36;7.50;99.90
8664;DHT22;4369;47.842;13.096;2023-02-23T03:31:28;7.50;99.90
8664;DHT22;4369;47.842;13.096;2023-02-23T03:34:20;7.50;99.90
8664;DHT22;4369;47.842;13.096;2023-02-23T03:37:15;7.50;99.90
8664;DHT22;4369;47.842;13.096;2023-02-23T03:40:05;7.60;99.90
8664;DHT22;4369;47.842;13.096;2023-02-23T03:42:52;7.60;99.90
8664;DHT22;4369;47.842;13.096;2023-02-23T03:45:43;7.60;99.90
8664;DHT22;4369;47.842;13.096;2023-02-23T03:48:30;7.60;99.90
8664;DHT22;4369;47.842;13.096;2023-02-23T03:51:17;7.60;99.90
8664;DHT22;4369;47.842;13.096;2023-02-23T03:54:07;7.60;99.90
8664;DHT22;4369;47.842;13.096;2023-02-23T03:56:56;7.60;99.90
8664;DHT22;4369;47.842;13.096;2023-02-23T03:59:46;7.60;99.90
8664;DHT22;4369;47.842;13.096;2023-02-23T04:02:33;7.70;99.90
8664;DHT22;4369;47.842;13.096;2023-02-23T04:05:21;7.60;99.90
8664;DHT22;4369;47.842;13.096;2023-02-23T04:08:10;7.70;99.90
8664;DHT22;4369;47.842;13.096;2023-02-23T04:11:00;7.70;99.90
8664;DHT22;4369;47.842;13.096;2023-02-23T04:13:48;7.80;99.90
8664;DHT22;4369;47.842;13.096;2023-02-23T04:16:19;7.80;99.90
8664;DHT22;4369;47.842;13.096;2023-02-23T04:18:46;7.80;99.90
8664;DHT22;4369;47.842;13.096;2023-02-23T04:21:12;7.80;99.90
8664;DHT22;4369;47.842;13.096;2023-02-23T04:23:40;7.80;99.90
8664;DHT22;4369;47.842;13.096;2023-02-23T04:26:07;7.70;99.90
8664;DHT22;4369;47.842;13.096;2023-02-23T04:28:34;7.80;99.90
8664;DHT22;4369;47.842;13.096;2023-02-23T04:31:01;7.80;99.90
8664;DHT22;4369;47.842;13.096;2023-02-23T04:33:28;7.80;99.90
8664;DHT22;4369;47.842;13.096;2023-02-23T04:35:56;7.80;99.90
8664;DHT22;4369;47.842;13.096;2023-02-23T04:38:23;7.80;99.90
8664;DHT22;4369;47.842;13.096;2023-02-23T04:40:50;7.80;99.90
8664;DHT22;4369;47.842;13.096;2023-02-23T04:43:17;7.80;99.90
8664;DHT22;4369;47.842;13.096;2023-02-23T04:45:44;7.80;99.90
8664;DHT22;4369;47.842;13.096;2023-02-23T04:48:10;7.80;99.90
8664;DHT22;4369;47.842;13.096;2023-02-23T04:50:37;7.80;99.90
8664;DHT22;4369;47.842;13.096;2023-02-23T04:53:06;7.70;99.90
8664;DHT22;4369;47.842;13.096;2023-02-23T04:55:33;7.70;99.90
8664;DHT22;4369;47.842;13.096;2023-02-23T04:58:00;7.70;99.90
8664;DHT22;4369;47.842;13.096;2023-02-23T05:00:28;7.60;99.90
8664;DHT22;4369;47.842;13.096;2023-02-23T05:02:56;7.60;99.90
8664;DHT22;4369;47.842;13.096;2023-02-23T05:05:22;7.70;99.90
8664;DHT22;4369;47.842;13.096;2023-02-23T05:07:49;7.70;99.90
8664;DHT22;4369;47.842;13.096;2023-02-23T05:10:18;7.70;99.90
8664;DHT22;4369;47.842;13.096;2023-02-23T05:12:45;7.70;99.90
8664;DHT22;4369;47.842;13.096;2023-02-23T05:15:12;7.60;99.90
8664;DHT22;4369;47.842;13.096;2023-02-23T05:17:39;7.70;99.90
8664;DHT22;4369;47.842;13.096;2023-02-23T05:20:08;7.70;99.90
8664;DHT22;4369;47.842;13.096;2023-02-23T05:22:35;7.60;99.90
8664;DHT22;4369;47.842;13.096;2023-02-23T05:25:02;7.60;99.90
8664;DHT22;4369;47.842;13.096;2023-02-23T05:27:31;7.60;99.90
8664;DHT22;4369;47.842;13.096;2023-02-23T05:29:58;7.60;99.90
8664;DHT22;4369;47.842;13.096;2023-02-23T05:32:25;7.50;99.90
8664;DHT22;4369;47.842;13.096;2023-02-23T05:34:52;7.50;99.90
8664;DHT22;4369;47.842;13.096;2023-02-23T05:37:19;7.50;99.90
8664;DHT22;4369;47.842;13.096;2023-02-23T05:39:46;7.50;99.90
8664;DHT22;4369;47.842;13.096;2023-02-23T05:42:13;7.40;99.90
8664;DHT22;4369;47.842;13.096;2023-02-23T05:44:41;7.40;99.90
8664;DHT22;4369;47.842;13.096;2023-02-23T05:47:08;7.30;99.90
8664;DHT22;4369;47.842;13.096;2023-02-23T05:49:35;7.30;99.90
8664;DHT22;4369;47.842;13.096;2023-02-23T05:52:03;7.30;99.90
8664;DHT22;4369;47.842;13.096;2023-02-23T05:54:30;7.30;99.90
8664;DHT22;4369;47.842;13.096;2023-02-23T05:56:57;7.30;99.90
8664;DHT22;4369;47.842;13.096;2023-02-23T05:59:23;7.30;99.90
8664;DHT22;4369;47.842;13.096;2023-02-23T06:01:52;7.30;99.90
8664;DHT22;4369;47.842;13.096;2023-02-23T06:04:19;7.40;99.90
8664;DHT22;4369;47.842;13.096;2023-02-23T06:06:47;7.40;99.90
8664;DHT22;4369;47.842;13.096;2023-02-23T06:09:14;7.40;99.90
8664;DHT22;4369;47.842;13.096;2023-02-23T06:11:41;7.40;99.90
8664;DHT22;4369;47.842;13.096;2023-02-23T06:14:09;7.30;99.90
8664;DHT22;4369;47.842;13.096;2023-02-23T06:16:36;7.30;99.90
8664;DHT22;4369;47.842;13.096;2023-02-23T06:19:04;7.40;99.90
8664;DHT22;4369;47.842;13.096;2023-02-23T06:21:31;7.50;99.90
8664;DHT22;4369;47.842;13.096;2023-02-23T06:23:58;7.50;99.90
8664;DHT22;4369;47.842;13.096;2023-02-23T06:26:25;7.50;99.90
8664;DHT22;4369;47.842;13.096;2023-02-23T06:28:52;7.50;99.90
8664;DHT22;4369;47.842;13.096;2023-02-23T06:31:19;7.60;99.90
8664;DHT22;4369;47.842;13.096;2023-02-23T06:33:46;7.50;99.90
8664;DHT22;4369;47.842;13.096;2023-02-23T06:36:15;7.50;99.90
8664;DHT22;4369;47.842;13.096;2023-02-23T06:38:42;7.60;99.90
8664;DHT22;4369;47.842;13.096;2023-02-23T06:41:10;7.60;99.90
8664;DHT22;4369;47.842;13.096;2023-02-23T06:43:37;7.60;99.90
8664;DHT22;4369;47.842;13.096;2023-02-23T06:46:04;7.60;99.90
8664;DHT22;4369;47.842;13.096;2023-02-23T06:48:31;7.70;99.90
8664;DHT22;4369;47.842;13.096;2023-02-23T06:50:58;7.70;99.90
8664;DHT22;4369;47.842;13.096;2023-02-23T06:53:26;7.60;99.90
8664;DHT22;4369;47.842;13.096;2023-02-23T06:55:54;7.60;99.90
8664;DHT22;4369;47.842;13.096;2023-02-23T06:58:21;7.60;99.90
8664;DHT22;4369;47.842;13.096;2023-02-23T07:00:48;7.70;99.90
8664;DHT22;4369;47.842;13.096;2023-02-23T07:03:15;7.70;99.90
8664;DHT22;4369;47.842;13.096;2023-02-23T07:05:43;7.70;99.90
8664;DHT22;4369;47.842;13.096;2023-02-23T07:08:10;7.70;99.90
8664;DHT22;4369;47.842;13.096;2023-02-23T07:10:38;7.80;99.90
8664;DHT22;4369;47.842;13.096;2023-02-23T07:13:05;7.80;99.90
8664;DHT22;4369;47.842;13.096;2023-02-23T07:15:34;7.90;99.90
8664;DHT22;4369;47.842;13.096;2023-02-23T07:18:01;7.90;99.90
8664;DHT22;4369;47.842;13.096;2023-02-23T07:20:27;7.90;99.90
8664;DHT22;4369;47.842;13.096;2023-02-23T07:22:56;8.00;99.90
8664;DHT22;4369;47.842;13.096;2023-02-23T07:25:23;8.00;99.90
8664;DHT22;4369;47.842;13.096;2023-02-23T07:27:51;8.00;99.90
8664;DHT22;4369;47.842;13.096;2023-02-23T07:30:19;7.90;99.90
8664;DHT22;4369;47.842;13.096;2023-02-23T07:32:49;8.00;99.90
8664;DHT22;4369;47.842;13.096;2023-02-23T07:35:16;8.10;99.90
8664;DHT22;4369;47.842;13.096;2023-02-23T07:37:43;8.00;99.90
8664;DHT22;4369;47.842;13.096;2023-02-23T07:40:10;8.10;99.90
8664;DHT22;4369;47.842;13.096;2023-02-23T07:42:37;8.10;99.90
8664;DHT22;4369;47.842;13.096;2023-02-23T07:45:07;8.10;99.90
8664;DHT22;4369;47.842;13.096;2023-02-23T07:47:34;8.20;99.90
8664;DHT22;4369;47.842;13.096;2023-02-23T07:50:03;8.30;99.90
8664;DHT22;4369;47.842;13.096;2023-02-23T07:52:35;8.50;99.90
8664;DHT22;4369;47.842;13.096;2023-02-23T07:55:03;8.50;99.90
8664;DHT22;4369;47.842;13.096;2023-02-23T07:57:30;8.70;99.90
8664;DHT22;4369;47.842;13.096;2023-02-23T07:59:57;8.80;99.90
8664;DHT22;4369;47.842;13.096;2023-02-23T08:02:26;8.80;99.90
8664;DHT22;4369;47.842;13.096;2023-02-23T08:04:53;8.90;99.90
8664;DHT22;4369;47.842;13.096;2023-02-23T08:07:20;9.00;99.90
8664;DHT22;4369;47.842;13.096;2023-02-23T08:09:47;9.00;99.90
8664;DHT22;4369;47.842;13.096;2023-02-23T08:12:15;8.90;99.90
8664;DHT22;4369;47.842;13.096;2023-02-23T08:14:42;9.10;99.90
8664;DHT22;4369;47.842;13.096;2023-02-23T08:17:09;9.30;99.90
8664;DHT22;4369;47.842;13.096;2023-02-23T08:19:38;9.40;99.90
8664;DHT22;4369;47.842;13.096;2023-02-23T08:22:05;9.40;99.90
8664;DHT22;4369;47.842;13.096;2023-02-23T08:24:33;9.40;99.90
8664;DHT22;4369;47.842;13.096;2023-02-23T08:27:00;9.60;99.90
8664;DHT22;4369;47.842;13.096;2023-02-23T08:29:27;9.70;99.90
8664;DHT22;4369;47.842;13.096;2023-02-23T08:31:55;9.80;99.90
8664;DHT22;4369;47.842;13.096;2023-02-23T08:34:22;9.90;99.90
8664;DHT22;4369;47.842;13.096;2023-02-23T08:36:50;10.10;99.90
8664;DHT22;4369;47.842;13.096;2023-02-23T08:39:18;10.10;99.90
8664;DHT22;4369;47.842;13.096;2023-02-23T08:41:45;10.20;99.90
8664;DHT22;4369;47.842;13.096;2023-02-23T08:44:12;10.40;99.90
8664;DHT22;4369;47.842;13.096;2023-02-23T08:46:39;10.50;99.90
8664;DHT22;4369;47.842;13.096;2023-02-23T08:49:06;10.50;99.90
8664;DHT22;4369;47.842;13.096;2023-02-23T08:51:35;10.40;99.90
8664;DHT22;4369;47.842;13.096;2023-02-23T08:54:03;10.30;99.90
8664;DHT22;4369;47.842;13.096;2023-02-23T08:56:34;10.20;99.90
8664;DHT22;4369;47.842;13.096;2023-02-23T08:59:01;10.20;99.90
8664;DHT22;4369;47.842;13.096;2023-02-23T09:01:28;10.20;99.90
8664;DHT22;4369;47.842;13.096;2023-02-23T09:03:54;10.20;99.90
8664;DHT22;4369;47.842;13.096;2023-02-23T09:06:23;10.20;99.90
8664;DHT22;4369;47.842;13.096;2023-02-23T09:08:51;10.20;99.90
8664;DHT22;4369;47.842;13.096;2023-02-23T09:11:19;10.00;99.90
8664;DHT22;4369;47.842;13.096;2023-02-23T09:13:46;10.00;99.90
8664;DHT22;4369;47.842;13.096;2023-02-23T09:16:13;10.30;99.90
8664;DHT22;4369;47.842;13.096;2023-02-23T09:18:41;10.50;99.90
8664;DHT22;4369;47.842;13.096;2023-02-23T09:21:14;10.70;99.90
8664;DHT22;4369;47.842;13.096;2023-02-23T09:23:43;10.90;99.90
8664;DHT22;4369;47.842;13.096;2023-02-23T09:26:11;11.00;99.90
8664;DHT22;4369;47.842;13.096;2023-02-23T09:28:39;11.20;99.90
8664;DHT22;4369;47.842;13.096;2023-02-23T09:31:07;11.10;99.90
8664;DHT22;4369;47.842;13.096;2023-02-23T09:33:34;11.10;99.90
8664;DHT22;4369;47.842;13.096;2023-02-23T09:36:05;11.00;99.90
8664;DHT22;4369;47.842;13.096;2023-02-23T09:38:32;11.10;99.90
8664;DHT22;4369;47.842;13.096;2023-02-23T09:40:59;10.90;99.90
8664;DHT22;4369;47.842;13.096;2023-02-23T09:43:30;10.70;99.90
8664;DHT22;4369;47.842;13.096;2023-02-23T09:46:09;10.80;99.90
8664;DHT22;4369;47.842;13.096;2023-02-23T09:48:38;10.90;99.90
8664;DHT22;4369;47.842;13.096;2023-02-23T09:51:06;11.00;99.90
8664;DHT22;4369;47.842;13.096;2023-02-23T09:53:37;11.00;99.90
8664;DHT22;4369;47.842;13.096;2023-02-23T09:56:10;11.10;99.90
8664;DHT22;4369;47.842;13.096;2023-02-23T09:58:38;11.00;99.90
8664;DHT22;4369;47.842;13.096;2023-02-23T10:01:40;11.10;99.90
8664;DHT22;4369;47.842;13.096;2023-02-23T10:04:13;11.00;99.90
8664;DHT22;4369;47.842;13.096;2023-02-23T10:06:44;11.00;99.90
8664;DHT22;4369;47.842;13.096;2023-02-23T10:09:17;11.00;99.90
8664;DHT22;4369;47.842;13.096;2023-02-23T10:11:52;11.00;99.90
8664;DHT22;4369;47.842;13.096;2023-02-23T10:14:47;11.10;99.90
8664;DHT22;4369;47.842;13.096;2023-02-23T10:17:24;11.10;99.90
8664;DHT22;4369;47.842;13.096;2023-02-23T10:19:59;11.10;99.90
8664;DHT22;4369;47.842;13.096;2023-02-23T10:22:28;11.30;99.90
8664;DHT22;4369;47.842;13.096;2023-02-23T10:25:02;11.50;99.90
8664;DHT22;4369;47.842;13.096;2023-02-23T10:27:37;11.70;99.90
8664;DHT22;4369;47.842;13.096;2023-02-23T10:30:15;12.10;99.90
8664;DHT22;4369;47.842;13.096;2023-02-23T10:32:48;12.60;99.90
8664;DHT22;4369;47.842;13.096;2023-02-23T10:35:18;13.00;99.90
8664;DHT22;4369;47.842;13.096;2023-02-23T10:37:45;13.30;99.90
8664;DHT22;4369;47.842;13.096;2023-02-23T10:40:15;13.60;99.90
8664;DHT22;4369;47.842;13.096;2023-02-23T10:42:43;13.90;99.90
8664;DHT22;4369;47.842;13.096;2023-02-23T10:45:13;13.90;99.90
8664;DHT22;4369;47.842;13.096;2023-02-23T10:47:44;13.80;99.90
8664;DHT22;4369;47.842;13.096;2023-02-23T10:50:13;13.90;99.90
8664;DHT22;4369;47.842;13.096;2023-02-23T10:52:43;14.00;99.90
8664;DHT22;4369;47.842;13.096;2023-02-23T10:55:21;14.00;99.90
8664;DHT22;4369;47.842;13.096;2023-02-23T10:57:49;13.90;99.90
8664;DHT22;4369;47.842;13.096;2023-02-23T11:00:27;13.80;99.90
8664;DHT22;4369;47.842;13.096;2023-02-23T11:02:57;13.60;99.90
8664;DHT22;4369;47.842;13.096;2023-02-23T11:05:29;13.90;99.90
8664;DHT22;4369;47.842;13.096;2023-02-23T11:08:18;14.00;99.90
8664;DHT22;4369;47.842;13.096;2023-02-23T11:11:02;14.00;99.90
8664;DHT22;4369;47.842;13.096;2023-02-23T11:13:37;14.00;99.90
8664;DHT22;4369;47.842;13.096;2023-02-23T11:16:07;14.10;99.90
8664;DHT22;4369;47.842;13.096;2023-02-23T11:18:38;14.20;99.90
8664;DHT22;4369;47.842;13.096;2023-02-23T11:21:11;14.20;99.90
8664;DHT22;4369;47.842;13.096;2023-02-23T11:23:39;14.30;99.90
8664;DHT22;4369;47.842;13.096;2023-02-23T11:26:20;14.40;99.90
8664;DHT22;4369;47.842;13.096;2023-02-23T11:28:52;14.50;99.90
8664;DHT22;4369;47.842;13.096;2023-02-23T11:31:22;14.60;99.90
8664;DHT22;4369;47.842;13.096;2023-02-23T11:33:55;14.30;99.90
8664;DHT22;4369;47.842;13.096;2023-02-23T11:36:26;14.10;99.90
8664;DHT22;4369;47.842;13.096;2023-02-23T11:39:04;13.80;99.90
8664;DHT22;4369;47.842;13.096;2023-02-23T11:41:31;13.60;99.90
8664;DHT22;4369;47.842;13.096;2023-02-23T11:44:00;13.70;99.90
8664;DHT22;4369;47.842;13.096;2023-02-23T11:46:30;13.80;99.90
8664;DHT22;4369;47.842;13.096;2023-02-23T11:49:02;13.80;99.90
8664;DHT22;4369;47.842;13.096;2023-02-23T11:51:31;13.50;99.90
8664;DHT22;4369;47.842;13.096;2023-02-23T11:53:59;13.60;99.90
8664;DHT22;4369;47.842;13.096;2023-02-23T11:56:28;13.90;99.90
8664;DHT22;4369;47.842;13.096;2023-02-23T11:59:00;14.00;99.90
8664;DHT22;4369;47.842;13.096;2023-02-23T12:01:39;13.80;99.90
8664;DHT22;4369;47.842;13.096;2023-02-23T12:04:25;13.60;99.90
8664;DHT22;4369;47.842;13.096;2023-02-23T12:07:16;13.70;99.90
8664;DHT22;4369;47.842;13.096;2023-02-23T12:09:45;13.40;99.90
8664;DHT22;4369;47.842;13.096;2023-02-23T12:12:16;13.30;99.90
8664;DHT22;4369;47.842;13.096;2023-02-23T12:14:48;13.50;99.90
8664;DHT22;4369;47.842;13.096;2023-02-23T12:17:22;13.40;99.90
8664;DHT22;4369;47.842;13.096;2023-02-23T12:19:55;13.60;99.90
8664;DHT22;4369;47.842;13.096;2023-02-23T12:22:28;13.60;99.90
8664;DHT22;4369;47.842;13.096;2023-02-23T12:25:00;13.60;99.90
8664;DHT22;4369;47.842;13.096;2023-02-23T12:27:35;13.70;99.90
8664;DHT22;4369;47.842;13.096;2023-02-23T12:30:12;13.60;99.90
8664;DHT22;4369;47.842;13.096;2023-02-23T12:32:45;13.80;99.90
8664;DHT22;4369;47.842;13.096;2023-02-23T12:35:19;14.00;99.90
8664;DHT22;4369;47.842;13.096;2023-02-23T12:37:54;14.10;99.90
8664;DHT22;4369;47.842;13.096;2023-02-23T12:40:24;14.30;99.90
8664;DHT22;4369;47.842;13.096;2023-02-23T12:42:58;14.30;99.90
8664;DHT22;4369;47.842;13.096;2023-02-23T12:45:33;14.30;99.90
8664;DHT22;4369;47.842;13.096;2023-02-23T12:48:07;14.60;99.90
8664;DHT22;4369;47.842;13.096;2023-02-23T12:50:41;14.80;99.90
8664;DHT22;4369;47.842;13.096;2023-02-23T12:53:19;15.00;99.90
8664;DHT22;4369;47.842;13.096;2023-02-23T12:55:56;15.20;99.90
8664;DHT22;4369;47.842;13.096;2023-02-23T12:58:31;15.40;99.70
8664;DHT22;4369;47.842;13.096;2023-02-23T13:01:02;15.30;98.30
8664;DHT22;4369;47.842;13.096;2023-02-23T13:03:55;15.30;98.60
8664;DHT22;4369;47.842;13.096;2023-02-23T13:06:32;15.00;99.10
8664;DHT22;4369;47.842;13.096;2023-02-23T13:09:20;15.00;98.00
8664;DHT22;4369;47.842;13.096;2023-02-23T13:12:05;15.10;97.70
8664;DHT22;4369;47.842;13.096;2023-02-23T13:14:38;15.00;98.00
8664;DHT22;4369;47.842;13.096;2023-02-23T13:17:20;14.90;97.80
8664;DHT22;4369;47.842;13.096;2023-02-23T13:19:52;14.80;98.50
8664;DHT22;4369;47.842;13.096;2023-02-23T13:22:28;14.80;99.00
8664;DHT22;4369;47.842;13.096;2023-02-23T13:24:59;14.90;99.70
8664;DHT22;4369;47.842;13.096;2023-02-23T13:27:34;14.80;99.70
8664;DHT22;4369;47.842;13.096;2023-02-23T13:30:01;14.80;99.90
8664;DHT22;4369;47.842;13.096;2023-02-23T13:32:31;14.80;99.70
8664;DHT22;4369;47.842;13.096;2023-02-23T13:35:02;14.70;99.90
8664;DHT22;4369;47.842;13.096;2023-02-23T13:37:34;14.50;99.90
8664;DHT22;4369;47.842;13.096;2023-02-23T13:40:16;14.60;99.90
8664;DHT22;4369;47.842;13.096;2023-02-23T13:42:54;14.50;99.90
8664;DHT22;4369;47.842;13.096;2023-02-23T13:45:30;14.40;99.90
8664;DHT22;4369;47.842;13.096;2023-02-23T13:48:10;14.40;99.90
8664;DHT22;4369;47.842;13.096;2023-02-23T13:50:43;14.20;99.90
8664;DHT22;4369;47.842;13.096;2023-02-23T13:53:32;14.10;99.90
8664;DHT22;4369;47.842;13.096;2023-02-23T13:56:00;13.90;99.90
8664;DHT22;4369;47.842;13.096;2023-02-23T13:58:31;13.80;99.90
8664;DHT22;4369;47.842;13.096;2023-02-23T14:01:10;13.70;99.90
8664;DHT22;4369;47.842;13.096;2023-02-23T14:03:44;13.70;99.90
8664;DHT22;4369;47.842;13.096;2023-02-23T14:06:14;13.60;99.90
8664;DHT22;4369;47.842;13.096;2023-02-23T14:08:51;13.60;99.90
8664;DHT22;4369;47.842;13.096;2023-02-23T14:11:41;13.60;99.90
8664;DHT22;4369;47.842;13.096;2023-02-23T14:14:12;13.50;99.90
8664;DHT22;4369;47.842;13.096;2023-02-23T14:16:42;13.40;99.90
8664;DHT22;4369;47.842;13.096;2023-02-23T14:19:34;13.40;99.90
8664;DHT22;4369;47.842;13.096;2023-02-23T14:22:04;13.30;99.90
8664;DHT22;4369;47.842;13.096;2023-02-23T14:24:32;13.20;99.90
8664;DHT22;4369;47.842;13.096;2023-02-23T14:27:31;13.20;99.90
8664;DHT22;4369;47.842;13.096;2023-02-23T14:30:21;13.10;99.90
8664;DHT22;4369;47.842;13.096;2023-02-23T14:32:50;13.00;99.90
8664;DHT22;4369;47.842;13.096;2023-02-23T14:35:42;13.10;99.90
8664;DHT22;4369;47.842;13.096;2023-02-23T14:38:15;13.00;99.90
8664;DHT22;4369;47.842;13.096;2023-02-23T14:40:46;13.00;99.90
8664;DHT22;4369;47.842;13.096;2023-02-23T14:43:46;13.00;99.90
8664;DHT22;4369;47.842;13.096;2023-02-23T14:46:19;12.90;99.90
8664;DHT22;4369;47.842;13.096;2023-02-23T14:48:59;12.90;99.90
8664;DHT22;4369;47.842;13.096;2023-02-23T14:51:44;12.90;99.90
8664;DHT22;4369;47.842;13.096;2023-02-23T14:54:22;12.90;99.90
8664;DHT22;4369;47.842;13.096;2023-02-23T14:56:53;13.00;99.90
8664;DHT22;4369;47.842;13.096;2023-02-23T14:59:22;13.10;99.90
8664;DHT22;4369;47.842;13.096;2023-02-23T15:01:52;13.20;99.90
8664;DHT22;4369;47.842;13.096;2023-02-23T15:04:21;13.20;99.90
8664;DHT22;4369;47.842;13.096;2023-02-23T15:06:52;13.20;99.90
8664;DHT22;4369;47.842;13.096;2023-02-23T15:09:28;13.20;99.90
8664;DHT22;4369;47.842;13.096;2023-02-23T15:11:59;13.20;99.90
8664;DHT22;4369;47.842;13.096;2023-02-23T15:14:31;13.20;99.90
8664;DHT22;4369;47.842;13.096;2023-02-23T15:16:59;13.10;99.90
8664;DHT22;4369;47.842;13.096;2023-02-23T15:19:27;13.00;99.90
8664;DHT22;4369;47.842;13.096;2023-02-23T15:21:58;13.00;99.90
8664;DHT22;4369;47.842;13.096;2023-02-23T15:24:27;13.00;99.90
8664;DHT22;4369;47.842;13.096;2023-02-23T15:26:54;13.10;99.90
8664;DHT22;4369;47.842;13.096;2023-02-23T15:29:24;13.00;99.90
8664;DHT22;4369;47.842;13.096;2023-02-23T15:31:53;13.00;99.90
8664;DHT22;4369;47.842;13.096;2023-02-23T15:34:24;13.00;99.90
8664;DHT22;4369;47.842;13.096;2023-02-23T15:36:53;13.00;99.90
8664;DHT22;4369;47.842;13.096;2023-02-23T15:39:32;13.00;99.90
8664;DHT22;4369;47.842;13.096;2023-02-23T15:42:00;13.00;99.90
8664;DHT22;4369;47.842;13.096;2023-02-23T15:44:29;12.90;99.90
8664;DHT22;4369;47.842;13.096;2023-02-23T15:46:59;12.90;99.90
8664;DHT22;4369;47.842;13.096;2023-02-23T15:49:28;12.90;99.90
8664;DHT22;4369;47.842;13.096;2023-02-23T15:51:59;12.90;99.90
8664;DHT22;4369;47.842;13.096;2023-02-23T15:54:29;12.80;99.90
8664;DHT22;4369;47.842;13.096;2023-02-23T15:56:57;12.80;99.90
8664;DHT22;4369;47.842;13.096;2023-02-23T15:59:32;12.80;99.90
8664;DHT22;4369;47.842;13.096;2023-02-23T16:02:01;12.60;99.90
8664;DHT22;4369;47.842;13.096;2023-02-23T16:04:30;12.60;99.90
8664;DHT22;4369;47.842;13.096;2023-02-23T16:07:12;12.60;99.90
8664;DHT22;4369;47.842;13.096;2023-02-23T16:09:48;12.50;99.90
8664;DHT22;4369;47.842;13.096;2023-02-23T16:12:18;12.50;99.90
8664;DHT22;4369;47.842;13.096;2023-02-23T16:14:51;12.50;99.90
8664;DHT22;4369;47.842;13.096;2023-02-23T16:17:26;12.40;99.90
8664;DHT22;4369;47.842;13.096;2023-02-23T16:19:56;12.40;99.90
8664;DHT22;4369;47.842;13.096;2023-02-23T16:22:24;12.40;99.90
8664;DHT22;4369;47.842;13.096;2023-02-23T16:24:59;12.30;99.90
8664;DHT22;4369;47.842;13.096;2023-02-23T16:27:28;12.30;99.90
8664;DHT22;4369;47.842;13.096;2023-02-23T16:29:59;12.30;99.90
8664;DHT22;4369;47.842;13.096;2023-02-23T16:32:33;12.20;99.90